sensor_id;sensor_type;location;lat;lon;timestamp;P1;durP1;ratioP1;P2;durP2;ratioP2
11394;SDS011;5753;54.402;10.220;2023-03-08T00:01:46;0.85;;;0.85;;
11394;SDS011;5753;54.402;10.220;2023-03-08T00:04:13;0.88;;;0.88;;
11394;SDS011;5753;54.402;10.220;2023-03-08T00:06:39;1.92;;;1.10;;
11394;SDS011;5753;54.402;10.220;2023-03-08T00:09:05;0.88;;;0.60;;
11394;SDS011;5753;54.402;10.220;2023-03-08T00:11:31;2.35;;;2.17;;
11394;SDS011;5753;54.402;10.220;2023-03-08T00:13:57;1.02;;;0.80;;
11394;SDS011;5753;54.402;10.220;2023-03-08T00:16:25;3.28;;;1.05;;
11394;SDS011;5753;54.402;10.220;2023-03-08T00:18:51;8.43;;;1.42;;
11394;SDS011;5753;54.402;10.220;2023-03-08T00:21:17;3.75;;;1.48;;
11394;SDS011;5753;54.402;10.220;2023-03-08T00:23:44;0.52;;;0.52;;
11394;SDS011;5753;54.402;10.220;2023-03-08T00:26:11;1.92;;;1.23;;
11394;SDS011;5753;54.402;10.220;2023-03-08T00:28:38;4.18;;;0.77;;
11394;SDS011;5753;54.402;10.220;2023-03-08T00:31:08;0.70;;;0.70;;
11394;SDS011;5753;54.402;10.220;2023-03-08T00:33:36;0.95;;;0.88;;
11394;SDS011;5753;54.402;10.220;2023-03-08T00:36:03;0.63;;;0.63;;
11394;SDS011;5753;54.402;10.220;2023-03-08T00:38:36;0.57;;;0.50;;
11394;SDS011;5753;54.402;10.220;2023-03-08T00:41:02;0.95;;;0.80;;
11394;SDS011;5753;54.402;10.220;2023-03-08T00:43:29;4.03;;;0.65;;
11394;SDS011;5753;54.402;10.220;2023-03-08T00:45:55;1.90;;;1.33;;
11394;SDS011;5753;54.402;10.220;2023-03-08T00:48:21;1.40;;;1.27;;
11394;SDS011;5753;54.402;10.220;2023-03-08T00:50:48;0.98;;;0.90;;
11394;SDS011;5753;54.402;10.220;2023-03-08T00:53:15;0.60;;;0.60;;
11394;SDS011;5753;54.402;10.220;2023-03-08T00:55:51;1.80;;;1.27;;
11394;SDS011;5753;54.402;10.220;2023-03-08T00:58:19;3.45;;;1.13;;
11394;SDS011;5753;54.402;10.220;2023-03-08T01:00:46;1.45;;;1.10;;
11394;SDS011;5753;54.402;10.220;2023-03-08T01:03:13;17.00;;;2.08;;
11394;SDS011;5753;54.402;10.220;2023-03-08T01:05:40;4.03;;;1.10;;
11394;SDS011;5753;54.402;10.220;2023-03-08T01:08:08;1.83;;;1.27;;
11394;SDS011;5753;54.402;10.220;2023-03-08T01:10:35;0.50;;;0.32;;
11394;SDS011;5753;54.402;10.220;2023-03-08T01:13:01;0.93;;;0.90;;
11394;SDS011;5753;54.402;10.220;2023-03-08T01:15:34;0.98;;;0.60;;
11394;SDS011;5753;54.402;10.220;2023-03-08T01:18:01;4.07;;;0.88;;
11394;SDS011;5753;54.402;10.220;2023-03-08T01:20:28;0.77;;;0.68;;
11394;SDS011;5753;54.402;10.220;2023-03-08T01:22:54;2.22;;;1.23;;
11394;SDS011;5753;54.402;10.220;2023-03-08T01:25:20;0.60;;;0.60;;
11394;SDS011;5753;54.402;10.220;2023-03-08T01:27:46;0.95;;;0.88;;
11394;SDS011;5753;54.402;10.220;2023-03-08T01:30:12;1.38;;;0.52;;
11394;SDS011;5753;54.402;10.220;2023-03-08T01:32:39;1.13;;;0.57;;
11394;SDS011;5753;54.402;10.220;2023-03-08T01:35:05;0.70;;;0.70;;
11394;SDS011;5753;54.402;10.220;2023-03-08T01:37:32;1.13;;;0.77;;
11394;SDS011;5753;54.402;10.220;2023-03-08T01:39:58;3.53;;;1.10;;
11394;SDS011;5753;54.402;10.220;2023-03-08T01:42:24;0.90;;;0.90;;
11394;SDS011;5753;54.402;10.220;2023-03-08T01:47:18;0.52;;;0.50;;
11394;SDS011;5753;54.402;10.220;2023-03-08T01:49:46;6.82;;;0.98;;
11394;SDS011;5753;54.402;10.220;2023-03-08T01:52:26;0.60;;;0.60;;
11394;SDS011;5753;54.402;10.220;2023-03-08T01:55:03;0.70;;;0.70;;
11394;SDS011;5753;54.402;10.220;2023-03-08T01:57:34;1.05;;;0.52;;
11394;SDS011;5753;54.402;10.220;2023-03-08T02:00:21;0.52;;;0.50;;
11394;SDS011;5753;54.402;10.220;2023-03-08T02:05:20;0.57;;;0.57;;
11394;SDS011;5753;54.402;10.220;2023-03-08T02:07:47;2.85;;;0.50;;
11394;SDS011;5753;54.402;10.220;2023-03-08T02:10:13;1.17;;;0.45;;
11394;SDS011;5753;54.402;10.220;2023-03-08T02:12:41;4.03;;;0.90;;
11394;SDS011;5753;54.402;10.220;2023-03-08T02:15:09;8.07;;;1.60;;
11394;SDS011;5753;54.402;10.220;2023-03-08T02:17:36;3.28;;;1.00;;
11394;SDS011;5753;54.402;10.220;2023-03-08T02:20:12;2.78;;;1.50;;
11394;SDS011;5753;54.402;10.220;2023-03-08T02:22:43;3.47;;;0.80;;
11394;SDS011;5753;54.402;10.220;2023-03-08T02:25:14;0.60;;;0.60;;
11394;SDS011;5753;54.402;10.220;2023-03-08T02:27:42;1.13;;;0.70;;
11394;SDS011;5753;54.402;10.220;2023-03-08T02:30:10;0.45;;;0.45;;
11394;SDS011;5753;54.402;10.220;2023-03-08T02:32:37;1.02;;;0.75;;
11394;SDS011;5753;54.402;10.220;2023-03-08T02:35:04;9.50;;;1.05;;
11394;SDS011;5753;54.402;10.220;2023-03-08T02:37:31;4.68;;;0.82;;
11394;SDS011;5753;54.402;10.220;2023-03-08T02:39:57;3.05;;;1.52;;
11394;SDS011;5753;54.402;10.220;2023-03-08T02:42:24;0.77;;;0.77;;
11394;SDS011;5753;54.402;10.220;2023-03-08T02:44:50;1.25;;;1.00;;
11394;SDS011;5753;54.402;10.220;2023-03-08T02:47:16;1.52;;;1.42;;
11394;SDS011;5753;54.402;10.220;2023-03-08T02:49:42;0.47;;;0.47;;
11394;SDS011;5753;54.402;10.220;2023-03-08T02:52:08;0.82;;;0.82;;
11394;SDS011;5753;54.402;10.220;2023-03-08T02:54:35;0.88;;;0.70;;
11394;SDS011;5753;54.402;10.220;2023-03-08T02:57:01;1.25;;;0.70;;
11394;SDS011;5753;54.402;10.220;2023-03-08T02:59:27;0.82;;;0.77;;
11394;SDS011;5753;54.402;10.220;2023-03-08T03:01:54;0.65;;;0.65;;
11394;SDS011;5753;54.402;10.220;2023-03-08T03:04:21;1.50;;;1.08;;
11394;SDS011;5753;54.402;10.220;2023-03-08T03:06:47;2.53;;;0.80;;
11394;SDS011;5753;54.402;10.220;2023-03-08T03:09:14;1.27;;;1.02;;
11394;SDS011;5753;54.402;10.220;2023-03-08T03:11:40;1.15;;;0.90;;
11394;SDS011;5753;54.402;10.220;2023-03-08T03:14:06;1.40;;;1.25;;
11394;SDS011;5753;54.402;10.220;2023-03-08T03:16:33;3.53;;;2.67;;
11394;SDS011;5753;54.402;10.220;2023-03-08T03:19:00;4.25;;;1.13;;
11394;SDS011;5753;54.402;10.220;2023-03-08T03:21:26;1.17;;;1.08;;
11394;SDS011;5753;54.402;10.220;2023-03-08T03:23:53;0.90;;;0.85;;
11394;SDS011;5753;54.402;10.220;2023-03-08T03:26:20;0.65;;;0.65;;
11394;SDS011;5753;54.402;10.220;2023-03-08T03:28:48;0.70;;;0.70;;
11394;SDS011;5753;54.402;10.220;2023-03-08T03:31:17;0.70;;;0.68;;
11394;SDS011;5753;54.402;10.220;2023-03-08T03:33:46;1.17;;;0.60;;
11394;SDS011;5753;54.402;10.220;2023-03-08T03:36:13;0.70;;;0.70;;
11394;SDS011;5753;54.402;10.220;2023-03-08T03:38:42;0.73;;;0.70;;
11394;SDS011;5753;54.402;10.220;2023-03-08T03:41:10;1.65;;;0.95;;
11394;SDS011;5753;54.402;10.220;2023-03-08T03:43:41;1.40;;;0.95;;
11394;SDS011;5753;54.402;10.220;2023-03-08T03:46:09;3.90;;;0.82;;
11394;SDS011;5753;54.402;10.220;2023-03-08T03:48:37;1.35;;;0.65;;
11394;SDS011;5753;54.402;10.220;2023-03-08T03:51:05;1.27;;;1.17;;
11394;SDS011;5753;54.402;10.220;2023-03-08T03:53:36;1.02;;;0.98;;
11394;SDS011;5753;54.402;10.220;2023-03-08T03:56:03;3.25;;;0.90;;
11394;SDS011;5753;54.402;10.220;2023-03-08T03:58:32;9.98;;;2.75;;
11394;SDS011;5753;54.402;10.220;2023-03-08T04:00:59;1.13;;;1.02;;
11394;SDS011;5753;54.402;10.220;2023-03-08T04:03:30;3.20;;;1.10;;
11394;SDS011;5753;54.402;10.220;2023-03-08T04:06:03;1.95;;;0.93;;
11394;SDS011;5753;54.402;10.220;2023-03-08T04:08:34;1.50;;;1.50;;
11394;SDS011;5753;54.402;10.220;2023-03-08T04:11:06;3.90;;;1.75;;
11394;SDS011;5753;54.402;10.220;2023-03-08T04:13:36;1.50;;;1.40;;
11394;SDS011;5753;54.402;10.220;2023-03-08T04:16:10;4.50;;;3.67;;
11394;SDS011;5753;54.402;10.220;2023-03-08T04:18:39;1.08;;;0.93;;
11394;SDS011;5753;54.402;10.220;2023-03-08T04:21:05;3.33;;;1.23;;
11394;SDS011;5753;54.402;10.220;2023-03-08T04:23:32;1.45;;;1.35;;
11394;SDS011;5753;54.402;10.220;2023-03-08T04:25:59;3.05;;;1.30;;
11394;SDS011;5753;54.402;10.220;2023-03-08T04:28:26;1.58;;;0.98;;
11394;SDS011;5753;54.402;10.220;2023-03-08T04:30:53;5.60;;;2.08;;
11394;SDS011;5753;54.402;10.220;2023-03-08T04:33:19;3.58;;;1.40;;
11394;SDS011;5753;54.402;10.220;2023-03-08T04:35:45;7.38;;;1.15;;
11394;SDS011;5753;54.402;10.220;2023-03-08T04:38:11;5.82;;;2.70;;
11394;SDS011;5753;54.402;10.220;2023-03-08T04:40:38;2.50;;;1.50;;
11394;SDS011;5753;54.402;10.220;2023-03-08T04:43:23;2.40;;;1.67;;
11394;SDS011;5753;54.402;10.220;2023-03-08T04:45:49;3.13;;;2.08;;
11394;SDS011;5753;54.402;10.220;2023-03-08T04:48:16;6.45;;;2.80;;
11394;SDS011;5753;54.402;10.220;2023-03-08T04:50:42;5.30;;;3.58;;
11394;SDS011;5753;54.402;10.220;2023-03-08T04:53:08;4.53;;;3.80;;
11394;SDS011;5753;54.402;10.220;2023-03-08T04:55:37;3.67;;;2.28;;
11394;SDS011;5753;54.402;10.220;2023-03-08T04:58:04;5.15;;;4.65;;
11394;SDS011;5753;54.402;10.220;2023-03-08T05:00:30;5.60;;;2.42;;
11394;SDS011;5753;54.402;10.220;2023-03-08T05:02:56;5.07;;;4.40;;
11394;SDS011;5753;54.402;10.220;2023-03-08T05:05:22;5.90;;;3.35;;
11394;SDS011;5753;54.402;10.220;2023-03-08T05:07:48;6.15;;;4.22;;
11394;SDS011;5753;54.402;10.220;2023-03-08T05:10:14;3.85;;;2.92;;
11394;SDS011;5753;54.402;10.220;2023-03-08T05:12:40;4.78;;;4.35;;
11394;SDS011;5753;54.402;10.220;2023-03-08T05:15:07;5.15;;;3.03;;
11394;SDS011;5753;54.402;10.220;2023-03-08T05:17:33;20.73;;;3.58;;
11394;SDS011;5753;54.402;10.220;2023-03-08T05:20:00;3.42;;;2.38;;
11394;SDS011;5753;54.402;10.220;2023-03-08T05:22:26;5.75;;;2.67;;
11394;SDS011;5753;54.402;10.220;2023-03-08T05:24:52;3.45;;;2.70;;
11394;SDS011;5753;54.402;10.220;2023-03-08T05:27:18;4.03;;;2.60;;
11394;SDS011;5753;54.402;10.220;2023-03-08T05:29:44;2.00;;;1.83;;
11394;SDS011;5753;54.402;10.220;2023-03-08T05:32:11;4.28;;;3.33;;
11394;SDS011;5753;54.402;10.220;2023-03-08T05:34:37;4.50;;;3.78;;
11394;SDS011;5753;54.402;10.220;2023-03-08T05:37:04;5.57;;;3.72;;
11394;SDS011;5753;54.402;10.220;2023-03-08T05:39:30;5.90;;;3.85;;
11394;SDS011;5753;54.402;10.220;2023-03-08T05:41:56;4.45;;;3.97;;
11394;SDS011;5753;54.402;10.220;2023-03-08T05:44:22;6.32;;;3.75;;
11394;SDS011;5753;54.402;10.220;2023-03-08T05:46:49;6.85;;;2.97;;
11394;SDS011;5753;54.402;10.220;2023-03-08T05:49:15;4.13;;;3.05;;
11394;SDS011;5753;54.402;10.220;2023-03-08T05:51:42;5.93;;;4.75;;
11394;SDS011;5753;54.402;10.220;2023-03-08T05:54:08;7.47;;;3.03;;
11394;SDS011;5753;54.402;10.220;2023-03-08T05:56:34;6.05;;;3.45;;
11394;SDS011;5753;54.402;10.220;2023-03-08T05:59:00;6.47;;;4.32;;
11394;SDS011;5753;54.402;10.220;2023-03-08T06:01:27;8.13;;;3.95;;
11394;SDS011;5753;54.402;10.220;2023-03-08T06:03:54;7.93;;;3.70;;
11394;SDS011;5753;54.402;10.220;2023-03-08T06:06:23;5.20;;;3.33;;
11394;SDS011;5753;54.402;10.220;2023-03-08T06:08:50;2.83;;;1.83;;
11394;SDS011;5753;54.402;10.220;2023-03-08T06:11:18;6.10;;;2.72;;
11394;SDS011;5753;54.402;10.220;2023-03-08T06:13:44;6.75;;;2.60;;
11394;SDS011;5753;54.402;10.220;2023-03-08T06:16:13;2.47;;;1.30;;
11394;SDS011;5753;54.402;10.220;2023-03-08T06:18:40;3.03;;;1.27;;
11394;SDS011;5753;54.402;10.220;2023-03-08T06:21:14;2.55;;;1.73;;
11394;SDS011;5753;54.402;10.220;2023-03-08T06:23:42;2.30;;;1.88;;
11394;SDS011;5753;54.402;10.220;2023-03-08T06:26:10;5.85;;;2.13;;
11394;SDS011;5753;54.402;10.220;2023-03-08T06:28:37;2.90;;;2.10;;
11394;SDS011;5753;54.402;10.220;2023-03-08T06:31:04;4.47;;;2.45;;
11394;SDS011;5753;54.402;10.220;2023-03-08T06:33:31;6.68;;;4.00;;
11394;SDS011;5753;54.402;10.220;2023-03-08T06:38:29;4.90;;;3.28;;
11394;SDS011;5753;54.402;10.220;2023-03-08T06:40:57;9.95;;;5.15;;
11394;SDS011;5753;54.402;10.220;2023-03-08T06:43:23;4.15;;;3.33;;
11394;SDS011;5753;54.402;10.220;2023-03-08T06:45:50;5.47;;;4.07;;
11394;SDS011;5753;54.402;10.220;2023-03-08T06:48:16;5.68;;;4.50;;
11394;SDS011;5753;54.402;10.220;2023-03-08T06:50:43;6.38;;;4.05;;
11394;SDS011;5753;54.402;10.220;2023-03-08T06:53:09;5.80;;;3.50;;
11394;SDS011;5753;54.402;10.220;2023-03-08T06:55:37;9.32;;;6.43;;
11394;SDS011;5753;54.402;10.220;2023-03-08T06:58:04;3.67;;;2.28;;
11394;SDS011;5753;54.402;10.220;2023-03-08T07:00:31;6.40;;;4.30;;
11394;SDS011;5753;54.402;10.220;2023-03-08T07:02:57;5.38;;;3.92;;
11394;SDS011;5753;54.402;10.220;2023-03-08T07:05:24;8.10;;;3.55;;
11394;SDS011;5753;54.402;10.220;2023-03-08T07:07:51;7.25;;;3.75;;
11394;SDS011;5753;54.402;10.220;2023-03-08T07:10:17;4.60;;;4.00;;
11394;SDS011;5753;54.402;10.220;2023-03-08T07:12:45;6.18;;;4.13;;
11394;SDS011;5753;54.402;10.220;2023-03-08T07:15:15;8.40;;;4.43;;
11394;SDS011;5753;54.402;10.220;2023-03-08T07:17:43;6.22;;;4.68;;
11394;SDS011;5753;54.402;10.220;2023-03-08T07:20:12;6.55;;;4.70;;
11394;SDS011;5753;54.402;10.220;2023-03-08T07:22:40;7.35;;;4.78;;
11394;SDS011;5753;54.402;10.220;2023-03-08T07:25:09;7.72;;;4.80;;
11394;SDS011;5753;54.402;10.220;2023-03-08T07:27:36;4.35;;;2.70;;
11394;SDS011;5753;54.402;10.220;2023-03-08T07:30:03;6.90;;;4.22;;
11394;SDS011;5753;54.402;10.220;2023-03-08T07:32:29;6.75;;;3.80;;
11394;SDS011;5753;54.402;10.220;2023-03-08T07:34:56;6.60;;;3.65;;
11394;SDS011;5753;54.402;10.220;2023-03-08T07:37:22;6.00;;;2.72;;
11394;SDS011;5753;54.402;10.220;2023-03-08T07:39:48;5.65;;;3.03;;
11394;SDS011;5753;54.402;10.220;2023-03-08T07:42:15;3.80;;;2.55;;
11394;SDS011;5753;54.402;10.220;2023-03-08T07:44:41;7.07;;;4.53;;
11394;SDS011;5753;54.402;10.220;2023-03-08T07:47:07;4.78;;;3.10;;
11394;SDS011;5753;54.402;10.220;2023-03-08T07:49:34;8.45;;;3.47;;
11394;SDS011;5753;54.402;10.220;2023-03-08T07:52:00;4.60;;;3.60;;
11394;SDS011;5753;54.402;10.220;2023-03-08T07:54:26;5.40;;;3.90;;
11394;SDS011;5753;54.402;10.220;2023-03-08T07:56:53;7.75;;;3.42;;
11394;SDS011;5753;54.402;10.220;2023-03-08T07:59:22;7.75;;;4.85;;
11394;SDS011;5753;54.402;10.220;2023-03-08T08:01:48;5.25;;;2.97;;
11394;SDS011;5753;54.402;10.220;2023-03-08T08:04:15;3.50;;;3.00;;
11394;SDS011;5753;54.402;10.220;2023-03-08T08:06:41;3.45;;;3.00;;
11394;SDS011;5753;54.402;10.220;2023-03-08T08:09:07;3.88;;;3.58;;
11394;SDS011;5753;54.402;10.220;2023-03-08T08:11:36;3.05;;;2.67;;
11394;SDS011;5753;54.402;10.220;2023-03-08T08:14:03;4.22;;;1.67;;
11394;SDS011;5753;54.402;10.220;2023-03-08T08:16:29;3.45;;;3.15;;
11394;SDS011;5753;54.402;10.220;2023-03-08T08:18:55;4.95;;;3.90;;
11394;SDS011;5753;54.402;10.220;2023-03-08T08:21:21;3.38;;;2.80;;
11394;SDS011;5753;54.402;10.220;2023-03-08T08:23:48;3.50;;;3.22;;
11394;SDS011;5753;54.402;10.220;2023-03-08T08:26:16;7.28;;;2.85;;
11394;SDS011;5753;54.402;10.220;2023-03-08T08:28:44;4.53;;;3.40;;
11394;SDS011;5753;54.402;10.220;2023-03-08T08:31:13;6.05;;;3.40;;
11394;SDS011;5753;54.402;10.220;2023-03-08T08:33:42;6.18;;;3.38;;
11394;SDS011;5753;54.402;10.220;2023-03-08T08:36:10;4.78;;;2.60;;
11394;SDS011;5753;54.402;10.220;2023-03-08T08:38:38;3.75;;;3.03;;
11394;SDS011;5753;54.402;10.220;2023-03-08T08:41:05;4.18;;;3.22;;
11394;SDS011;5753;54.402;10.220;2023-03-08T08:43:32;3.55;;;3.13;;
11394;SDS011;5753;54.402;10.220;2023-03-08T08:46:00;4.00;;;3.40;;
11394;SDS011;5753;54.402;10.220;2023-03-08T08:48:28;2.80;;;2.20;;
11394;SDS011;5753;54.402;10.220;2023-03-08T08:50:57;5.15;;;4.65;;
11394;SDS011;5753;54.402;10.220;2023-03-08T08:53:24;7.25;;;4.20;;
11394;SDS011;5753;54.402;10.220;2023-03-08T08:55:51;9.23;;;3.80;;
11394;SDS011;5753;54.402;10.220;2023-03-08T08:58:17;4.20;;;3.72;;
11394;SDS011;5753;54.402;10.220;2023-03-08T09:00:44;5.25;;;3.20;;
11394;SDS011;5753;54.402;10.220;2023-03-08T09:03:10;6.60;;;4.82;;
11394;SDS011;5753;54.402;10.220;2023-03-08T09:05:38;7.50;;;3.90;;
11394;SDS011;5753;54.402;10.220;2023-03-08T09:08:06;6.10;;;3.25;;
11394;SDS011;5753;54.402;10.220;2023-03-08T09:10:33;4.97;;;3.58;;
11394;SDS011;5753;54.402;10.220;2023-03-08T09:13:02;5.72;;;3.80;;
11394;SDS011;5753;54.402;10.220;2023-03-08T09:15:29;3.78;;;3.15;;
11394;SDS011;5753;54.402;10.220;2023-03-08T09:17:55;6.72;;;4.05;;
11394;SDS011;5753;54.402;10.220;2023-03-08T09:20:22;5.10;;;3.42;;
11394;SDS011;5753;54.402;10.220;2023-03-08T09:22:48;5.05;;;3.83;;
11394;SDS011;5753;54.402;10.220;2023-03-08T09:25:15;4.55;;;3.13;;
11394;SDS011;5753;54.402;10.220;2023-03-08T09:27:43;5.32;;;3.80;;
11394;SDS011;5753;54.402;10.220;2023-03-08T09:30:11;6.78;;;5.38;;
11394;SDS011;5753;54.402;10.220;2023-03-08T09:32:38;6.35;;;4.50;;
11394;SDS011;5753;54.402;10.220;2023-03-08T09:35:04;6.80;;;5.10;;
11394;SDS011;5753;54.402;10.220;2023-03-08T09:37:31;6.35;;;4.47;;
11394;SDS011;5753;54.402;10.220;2023-03-08T09:39:57;6.97;;;4.05;;
11394;SDS011;5753;54.402;10.220;2023-03-08T09:42:30;6.75;;;4.28;;
11394;SDS011;5753;54.402;10.220;2023-03-08T09:53:03;4.13;;;3.13;;
11394;SDS011;5753;54.402;10.220;2023-03-08T09:55:47;5.38;;;3.78;;
11394;SDS011;5753;54.402;10.220;2023-03-08T10:01:11;5.93;;;3.58;;
11394;SDS011;5753;54.402;10.220;2023-03-08T10:09:31;5.00;;;2.90;;
11394;SDS011;5753;54.402;10.220;2023-03-08T10:14:55;3.97;;;3.05;;
11394;SDS011;5753;54.402;10.220;2023-03-08T10:17:36;4.03;;;3.17;;
11394;SDS011;5753;54.402;10.220;2023-03-08T10:20:28;8.60;;;3.67;;
11394;SDS011;5753;54.402;10.220;2023-03-08T10:23:00;5.57;;;3.63;;
11394;SDS011;5753;54.402;10.220;2023-03-08T10:25:38;4.40;;;2.70;;
11394;SDS011;5753;54.402;10.220;2023-03-08T10:28:08;3.67;;;3.05;;
11394;SDS011;5753;54.402;10.220;2023-03-08T10:30:45;5.63;;;3.58;;
11394;SDS011;5753;54.402;10.220;2023-03-08T10:33:17;4.18;;;3.50;;
11394;SDS011;5753;54.402;10.220;2023-03-08T10:35:53;4.40;;;3.38;;
11394;SDS011;5753;54.402;10.220;2023-03-08T10:38:27;8.90;;;3.55;;
11394;SDS011;5753;54.402;10.220;2023-03-08T10:46:17;3.78;;;3.13;;
11394;SDS011;5753;54.402;10.220;2023-03-08T10:48:45;5.68;;;3.83;;
11394;SDS011;5753;54.402;10.220;2023-03-08T10:51:19;5.60;;;4.47;;
11394;SDS011;5753;54.402;10.220;2023-03-08T10:53:52;3.28;;;2.38;;
11394;SDS011;5753;54.402;10.220;2023-03-08T10:56:29;4.63;;;3.38;;
11394;SDS011;5753;54.402;10.220;2023-03-08T10:59:01;4.50;;;3.50;;
11394;SDS011;5753;54.402;10.220;2023-03-08T11:01:29;3.33;;;3.03;;
11394;SDS011;5753;54.402;10.220;2023-03-08T11:04:15;6.30;;;3.70;;
11394;SDS011;5753;54.402;10.220;2023-03-08T11:06:42;3.58;;;2.88;;
11394;SDS011;5753;54.402;10.220;2023-03-08T11:11:44;3.75;;;3.40;;
11394;SDS011;5753;54.402;10.220;2023-03-08T11:14:10;5.80;;;3.88;;
11394;SDS011;5753;54.402;10.220;2023-03-08T11:19:31;3.08;;;2.83;;
11394;SDS011;5753;54.402;10.220;2023-03-08T11:42:25;4.93;;;4.30;;
11394;SDS011;5753;54.402;10.220;2023-03-08T11:45:07;4.97;;;3.75;;
11394;SDS011;5753;54.402;10.220;2023-03-08T11:50:22;2.47;;;1.73;;
11394;SDS011;5753;54.402;10.220;2023-03-08T11:53:09;5.50;;;3.50;;
11394;SDS011;5753;54.402;10.220;2023-03-08T11:58:30;4.68;;;3.40;;
11394;SDS011;5753;54.402;10.220;2023-03-08T12:01:06;4.28;;;3.40;;
11394;SDS011;5753;54.402;10.220;2023-03-08T12:03:45;7.85;;;3.58;;
11394;SDS011;5753;54.402;10.220;2023-03-08T12:06:19;3.75;;;3.45;;
11394;SDS011;5753;54.402;10.220;2023-03-08T12:09:04;6.47;;;3.88;;
11394;SDS011;5753;54.402;10.220;2023-03-08T12:12:12;3.38;;;2.97;;
11394;SDS011;5753;54.402;10.220;2023-03-08T12:14:51;3.72;;;3.42;;
11394;SDS011;5753;54.402;10.220;2023-03-08T12:17:40;4.30;;;3.78;;
11394;SDS011;5753;54.402;10.220;2023-03-08T12:20:14;6.65;;;4.55;;
11394;SDS011;5753;54.402;10.220;2023-03-08T12:22:50;4.13;;;3.72;;
11394;SDS011;5753;54.402;10.220;2023-03-08T12:25:43;4.75;;;3.70;;
11394;SDS011;5753;54.402;10.220;2023-03-08T12:33:32;7.65;;;3.33;;
11394;SDS011;5753;54.402;10.220;2023-03-08T12:41:04;3.67;;;2.88;;
11394;SDS011;5753;54.402;10.220;2023-03-08T12:43:44;5.07;;;2.67;;
11394;SDS011;5753;54.402;10.220;2023-03-08T12:46:10;5.45;;;3.33;;
11394;SDS011;5753;54.402;10.220;2023-03-08T12:53:38;4.43;;;4.00;;
11394;SDS011;5753;54.402;10.220;2023-03-08T12:58:54;6.97;;;4.07;;
11394;SDS011;5753;54.402;10.220;2023-03-08T13:01:23;5.22;;;3.00;;
11394;SDS011;5753;54.402;10.220;2023-03-08T13:03:53;3.50;;;3.20;;
11394;SDS011;5753;54.402;10.220;2023-03-08T13:08:51;5.80;;;5.05;;
11394;SDS011;5753;54.402;10.220;2023-03-08T13:11:24;3.88;;;2.97;;
11394;SDS011;5753;54.402;10.220;2023-03-08T13:14:02;4.03;;;3.53;;
11394;SDS011;5753;54.402;10.220;2023-03-08T13:16:36;5.13;;;3.17;;
11394;SDS011;5753;54.402;10.220;2023-03-08T13:21:51;4.38;;;2.22;;
11394;SDS011;5753;54.402;10.220;2023-03-08T13:29:52;2.65;;;2.17;;
11394;SDS011;5753;54.402;10.220;2023-03-08T13:32:32;3.05;;;2.40;;
11394;SDS011;5753;54.402;10.220;2023-03-08T13:35:00;3.08;;;2.30;;
11394;SDS011;5753;54.402;10.220;2023-03-08T13:37:28;2.28;;;1.75;;
11394;SDS011;5753;54.402;10.220;2023-03-08T13:39:57;5.65;;;3.55;;
11394;SDS011;5753;54.402;10.220;2023-03-08T13:42:24;3.38;;;3.08;;
11394;SDS011;5753;54.402;10.220;2023-03-08T13:44:53;6.18;;;4.10;;
11394;SDS011;5753;54.402;10.220;2023-03-08T13:47:50;4.40;;;3.17;;
11394;SDS011;5753;54.402;10.220;2023-03-08T13:50:19;2.17;;;1.85;;
11394;SDS011;5753;54.402;10.220;2023-03-08T13:52:59;3.63;;;1.98;;
11394;SDS011;5753;54.402;10.220;2023-03-08T13:55:29;2.92;;;2.25;;
11394;SDS011;5753;54.402;10.220;2023-03-08T13:58:03;1.92;;;1.70;;
11394;SDS011;5753;54.402;10.220;2023-03-08T14:00:34;2.90;;;2.20;;
11394;SDS011;5753;54.402;10.220;2023-03-08T14:03:01;2.60;;;2.00;;
11394;SDS011;5753;54.402;10.220;2023-03-08T14:05:32;4.30;;;2.47;;
11394;SDS011;5753;54.402;10.220;2023-03-08T14:08:06;2.58;;;2.38;;
11394;SDS011;5753;54.402;10.220;2023-03-08T14:10:50;3.15;;;2.22;;
11394;SDS011;5753;54.402;10.220;2023-03-08T14:13:29;3.13;;;2.28;;
11394;SDS011;5753;54.402;10.220;2023-03-08T14:15:58;1.90;;;1.70;;
11394;SDS011;5753;54.402;10.220;2023-03-08T14:18:33;1.77;;;1.63;;
11394;SDS011;5753;54.402;10.220;2023-03-08T14:21:02;4.65;;;2.85;;
11394;SDS011;5753;54.402;10.220;2023-03-08T14:23:29;3.67;;;3.03;;
11394;SDS011;5753;54.402;10.220;2023-03-08T14:25:58;4.45;;;2.17;;
11394;SDS011;5753;54.402;10.220;2023-03-08T14:28:34;2.53;;;2.05;;
11394;SDS011;5753;54.402;10.220;2023-03-08T14:31:02;2.60;;;2.40;;
11394;SDS011;5753;54.402;10.220;2023-03-08T14:33:53;2.38;;;2.17;;
11394;SDS011;5753;54.402;10.220;2023-03-08T14:36:25;1.95;;;1.75;;
11394;SDS011;5753;54.402;10.220;2023-03-08T14:38:53;1.67;;;1.58;;
11394;SDS011;5753;54.402;10.220;2023-03-08T14:41:32;4.30;;;3.60;;
11394;SDS011;5753;54.402;10.220;2023-03-08T14:44:01;3.70;;;2.40;;
11394;SDS011;5753;54.402;10.220;2023-03-08T14:46:28;2.70;;;2.25;;
11394;SDS011;5753;54.402;10.220;2023-03-08T14:49:00;4.93;;;2.55;;
11394;SDS011;5753;54.402;10.220;2023-03-08T14:51:29;4.40;;;2.80;;
11394;SDS011;5753;54.402;10.220;2023-03-08T14:56:57;3.97;;;2.42;;
11394;SDS011;5753;54.402;10.220;2023-03-08T14:59:44;7.38;;;2.85;;
11394;SDS011;5753;54.402;10.220;2023-03-08T15:02:11;3.67;;;2.17;;
11394;SDS011;5753;54.402;10.220;2023-03-08T15:04:39;4.93;;;3.35;;
11394;SDS011;5753;54.402;10.220;2023-03-08T15:07:06;3.40;;;3.05;;
11394;SDS011;5753;54.402;10.220;2023-03-08T15:09:38;5.72;;;3.50;;
11394;SDS011;5753;54.402;10.220;2023-03-08T15:12:05;2.97;;;2.65;;
11394;SDS011;5753;54.402;10.220;2023-03-08T15:14:33;3.13;;;2.65;;
11394;SDS011;5753;54.402;10.220;2023-03-08T15:16:59;4.88;;;3.40;;
11394;SDS011;5753;54.402;10.220;2023-03-08T15:19:25;2.80;;;2.33;;
11394;SDS011;5753;54.402;10.220;2023-03-08T15:21:52;3.70;;;3.13;;
11394;SDS011;5753;54.402;10.220;2023-03-08T15:24:18;4.72;;;3.55;;
11394;SDS011;5753;54.402;10.220;2023-03-08T15:26:45;4.20;;;3.05;;
11394;SDS011;5753;54.402;10.220;2023-03-08T15:29:30;5.03;;;4.15;;
11394;SDS011;5753;54.402;10.220;2023-03-08T15:31:58;4.53;;;3.47;;
11394;SDS011;5753;54.402;10.220;2023-03-08T15:34:24;4.13;;;3.72;;
11394;SDS011;5753;54.402;10.220;2023-03-08T15:36:52;4.95;;;3.97;;
11394;SDS011;5753;54.402;10.220;2023-03-08T15:39:19;9.98;;;3.38;;
11394;SDS011;5753;54.402;10.220;2023-03-08T15:41:45;5.10;;;2.38;;
11394;SDS011;5753;54.402;10.220;2023-03-08T15:44:12;2.15;;;1.75;;
11394;SDS011;5753;54.402;10.220;2023-03-08T15:46:39;2.33;;;1.20;;
11394;SDS011;5753;54.402;10.220;2023-03-08T15:49:05;2.15;;;1.95;;
11394;SDS011;5753;54.402;10.220;2023-03-08T15:51:33;3.38;;;1.98;;
11394;SDS011;5753;54.402;10.220;2023-03-08T15:54:00;3.13;;;2.35;;
11394;SDS011;5753;54.402;10.220;2023-03-08T15:56:28;5.22;;;2.72;;
11394;SDS011;5753;54.402;10.220;2023-03-08T15:58:54;4.07;;;2.63;;
11394;SDS011;5753;54.402;10.220;2023-03-08T16:01:21;7.00;;;2.85;;
11394;SDS011;5753;54.402;10.220;2023-03-08T16:03:52;4.40;;;3.08;;
11394;SDS011;5753;54.402;10.220;2023-03-08T16:06:19;3.88;;;2.92;;
11394;SDS011;5753;54.402;10.220;2023-03-08T16:08:46;5.07;;;2.40;;
11394;SDS011;5753;54.402;10.220;2023-03-08T16:11:13;2.47;;;2.10;;
11394;SDS011;5753;54.402;10.220;2023-03-08T16:13:41;6.45;;;3.25;;
11394;SDS011;5753;54.402;10.220;2023-03-08T16:16:07;3.78;;;2.50;;
11394;SDS011;5753;54.402;10.220;2023-03-08T16:18:35;3.58;;;2.10;;
11394;SDS011;5753;54.402;10.220;2023-03-08T16:21:05;3.55;;;3.05;;
11394;SDS011;5753;54.402;10.220;2023-03-08T16:23:33;3.75;;;1.98;;
11394;SDS011;5753;54.402;10.220;2023-03-08T16:26:00;3.72;;;2.10;;
11394;SDS011;5753;54.402;10.220;2023-03-08T16:28:31;4.80;;;2.85;;
11394;SDS011;5753;54.402;10.220;2023-03-08T16:30:58;3.38;;;2.65;;
11394;SDS011;5753;54.402;10.220;2023-03-08T16:33:25;3.53;;;2.45;;
11394;SDS011;5753;54.402;10.220;2023-03-08T16:35:52;8.43;;;2.85;;